Time,TemperatureF,DewpointF,PressureIn,WindDirection,WindDirectionDegrees,WindSpeedMPH,WindSpeedGustMPH,Humidity,HourlyPrecipIn,Conditions,Clouds,dailyrainin,SoftwareType,DateUTC
2013-06-19 09:43:00,57.0,-99.9,29.95,NW,315,4.0,11.0,0,-99.99,,,0.00,,2013-06-19 13:43:00,
2013-06-19 09:54:00,57.0,-99.9,29.95,NW,315,4.0,11.0,0,-99.99,,,0.00,,2013-06-19 13:54:00,
2013-06-19 10:02:00,57.0,-99.9,29.95,NW,315,4.0,11.0,0,-99.99,,,0.00,,2013-06-19 14:02:00,
2013-06-19 10:44:00,57.0,-99.9,29.95,NNW,337,4.0,17.0,0,-99.99,,,0.00,,2013-06-19 14:44:00,
2013-06-19 10:53:00,57.0,-99.9,29.95,NNW,337,4.0,17.0,0,-99.99,,,0.00,,2013-06-19 14:53:00,
2013-06-19 11:02:00,57.0,-99.9,29.95,NNW,337,4.0,17.0,0,-99.99,,,0.00,,2013-06-19 15:02:00,
2013-06-19 11:43:00,59.0,-99.9,29.94,NW,315,10.0,14.0,0,-99.99,,,0.00,,2013-06-19 15:43:00,
2013-06-19 11:53:00,59.0,-99.9,29.94,NW,315,10.0,14.0,0,-99.99,,,0.00,,2013-06-19 15:53:00,
2013-06-19 12:02:00,59.0,-99.9,29.94,NW,315,10.0,14.0,0,-99.99,,,0.00,,2013-06-19 16:02:00,
2013-06-19 12:43:00,62.0,-99.9,29.93,NW,315,0.0,14.0,0,-99.99,,,0.00,,2013-06-19 16:43:00,
2013-06-19 12:53:00,62.0,-99.9,29.93,NW,315,0.0,14.0,0,-99.99,,,0.00,,2013-06-19 16:53:00,
2013-06-19 13:02:00,62.0,-99.9,29.93,NW,315,0.0,14.0,0,-99.99,,,0.00,,2013-06-19 17:02:00,
2013-06-19 13:43:00,64.0,-99.9,29.93,WNW,292,7.0,13.0,0,-99.99,,,0.00,,2013-06-19 17:43:00,
2013-06-19 13:53:00,64.0,-99.9,29.93,WNW,292,7.0,13.0,0,-99.99,,,0.00,,2013-06-19 17:53:00,
2013-06-19 14:02:00,64.0,-99.9,29.93,WNW,292,7.0,13.0,0,-99.99,,,0.00,,2013-06-19 18:02:00,
2013-06-19 14:44:00,66.0,-99.9,29.92,North,360,7.0,17.0,0,-99.99,,,0.00,,2013-06-19 18:44:00,
2013-06-19 14:53:00,66.0,-99.9,29.92,North,360,7.0,17.0,0,-99.99,,,0.00,,2013-06-19 18:53:00,
2013-06-19 15:02:00,66.0,-99.9,29.92,North,360,7.0,17.0,0,-99.99,,,0.00,,2013-06-19 19:02:00,
2013-06-19 15:44:00,67.0,-99.9,29.93,NNE,22,8.0,13.0,0,-99.99,,,0.00,,2013-06-19 19:44:00,
2013-06-19 15:53:00,67.0,-99.9,29.93,NNE,22,8.0,13.0,0,-99.99,,,0.00,,2013-06-19 19:53:00,
2013-06-19 16:02:00,67.0,-99.9,29.93,NNE,22,8.0,13.0,0,-99.99,,,0.00,,2013-06-19 20:02:00,
2013-06-19 16:43:00,66.0,-99.9,29.92,North,360,5.0,15.0,0,-99.99,,,0.00,,2013-06-19 20:43:00,
2013-06-19 16:52:00,66.0,-99.9,29.92,North,360,5.0,15.0,0,-99.99,,,0.00,,2013-06-19 20:52:00,
2013-06-19 17:02:00,66.0,-99.9,29.92,North,360,5.0,15.0,0,-99.99,,,0.00,,2013-06-19 21:02:00,
2013-06-19 17:44:00,68.0,-99.9,29.93,NNE,22,8.0,18.0,0,-99.99,,,0.00,,2013-06-19 21:44:00,
2013-06-19 17:52:00,68.0,-99.9,29.93,NNE,22,8.0,18.0,0,-99.99,,,0.00,,2013-06-19 21:52:00,
2013-06-19 18:02:00,68.0,-99.9,29.93,NNE,22,8.0,18.0,0,-99.99,,,0.00,,2013-06-19 22:02:00,
2013-06-19 18:43:00,67.0,-99.9,29.94,NW,315,5.0,14.0,0,-99.99,,,0.00,,2013-06-19 22:43:00,
2013-06-19 18:53:00,67.0,-99.9,29.94,NW,315,5.0,14.0,0,-99.99,,,0.00,,2013-06-19 22:53:00,
2013-06-19 19:02:00,67.0,-99.9,29.94,NW,315,5.0,14.0,0,-99.99,,,0.00,,2013-06-19 23:02:00,
2013-06-19 19:43:00,68.0,-99.9,29.95,NNW,337,8.0,11.0,0,-99.99,,,0.00,,2013-06-19 23:43:00,
2013-06-19 19:52:00,68.0,-99.9,29.95,NNW,337,8.0,11.0,0,-99.99,,,0.00,,2013-06-19 23:52:00,
2013-06-19 20:02:00,68.0,-99.9,29.95,NNW,337,8.0,11.0,0,-99.99,,,0.00,,2013-06-20 00:02:00,
2013-06-19 21:44:00,55.0,-99.9,30.00,WSW,247,4.0,7.0,0,-99.99,,,0.00,,2013-06-20 01:44:00,
2013-06-19 21:53:00,55.0,-99.9,30.00,WSW,247,4.0,7.0,0,-99.99,,,0.00,,2013-06-20 01:53:00,
2013-06-19 22:02:00,55.0,-99.9,30.00,WSW,247,4.0,7.0,0,-99.99,,,0.00,,2013-06-20 02:02:00,
2013-06-19 22:43:00,51.0,-99.9,30.01,SW,225,3.0,7.0,0,-99.99,,,0.00,,2013-06-20 02:43:00,
2013-06-19 22:53:00,51.0,-99.9,30.01,SW,225,3.0,7.0,0,-99.99,,,0.00,,2013-06-20 02:53:00,
2013-06-19 23:02:00,51.0,-99.9,30.01,SW,225,3.0,7.0,0,-99.99,,,0.00,,2013-06-20 03:02:00,
2013-06-19 23:43:00,49.0,-99.9,30.03,SW,225,4.0,7.0,0,-99.99,,,0.00,,2013-06-20 03:43:00,
2013-06-19 23:54:00,49.0,-99.9,30.03,SW,225,4.0,7.0,0,-99.99,,,0.00,,2013-06-20 03:54:00,